Time;durP1;ratioP1;P1;durP2;ratioP2;P2;SDS_P1;SDS_P2;PMS_P1;PMS_P2;Temp;Humidity;BMP_temperature;BMP_pressure;BME280_temperature;BME280_humidity;BME280_pressure;Samples;Min_cycle;Max_cycle;Signal;HPM_P1;HPM_P2
2024/01/16 00:02:03;;;;;;;7.53;1.88;;;;;;;;;;5028664;28;20091;-78
2024/01/16 00:04:32;;;;;;;14.63;1.75;;;;;;;;;;5033694;28;20536;-79
2024/01/16 00:06:59;;;;;;;16.75;2.53;;;;;;;;;;5026469;28;20067;-79
2024/01/16 00:09:25;;;;;;;11.93;1.90;;;;;;;;;;5024323;28;20143;-80
2024/01/16 00:11:51;;;;;;;13.10;2.05;;;;;;;;;;5027779;28;20056;-78
2024/01/16 00:14:19;;;;;;;9.75;1.67;;;;;;;;;;5025923;28;20065;-78
2024/01/16 00:16:47;;;;;;;8.60;1.80;;;;;;;;;;5023947;28;20621;-78
2024/01/16 00:19:13;;;;;;;9.02;1.92;;;;;;;;;;5024944;28;20045;-78
2024/01/16 00:21:40;;;;;;;9.35;1.77;;;;;;;;;;5025906;28;20127;-78
2024/01/16 00:24:07;;;;;;;11.15;1.73;;;;;;;;;;5020568;28;20124;-78
2024/01/16 00:26:33;;;;;;;13.50;2.08;;;;;;;;;;5007498;28;20136;-77
2024/01/16 00:28:59;;;;;;;13.30;1.95;;;;;;;;;;5010187;28;20437;-77
2024/01/16 00:31:25;;;;;;;11.18;1.75;;;;;;;;;;5026402;28;20049;-77
2024/01/16 00:33:51;;;;;;;9.05;1.52;;;;;;;;;;5023300;28;20053;-77
2024/01/16 00:36:17;;;;;;;8.88;1.42;;;;;;;;;;5006133;28;20068;-78
2024/01/16 00:38:43;;;;;;;14.35;1.63;;;;;;;;;;5021870;28;20045;-78
2024/01/16 00:41:09;;;;;;;8.55;1.67;;;;;;;;;;5020724;28;20053;-77
2024/01/16 00:43:35;;;;;;;6.78;1.33;;;;;;;;;;5002983;28;20058;-77
2024/01/16 00:46:02;;;;;;;8.63;1.95;;;;;;;;;;5024605;28;20562;-77
2024/01/16 00:48:28;;;;;;;5.97;1.02;;;;;;;;;;5021478;28;20041;-78
2024/01/16 00:50:55;;;;;;;9.55;1.55;;;;;;;;;;5000855;28;20049;-78
2024/01/16 00:53:21;;;;;;;6.80;1.42;;;;;;;;;;5003887;28;20049;-78
2024/01/16 00:55:47;;;;;;;7.95;1.33;;;;;;;;;;5021075;28;20153;-78
2024/01/16 00:58:13;;;;;;;7.78;1.27;;;;;;;;;;5022107;28;20588;-78
2024/01/16 01:00:39;;;;;;;6.68;1.30;;;;;;;;;;5020910;28;20038;-78
2024/01/16 01:03:05;;;;;;;12.38;1.80;;;;;;;;;;5021170;28;20038;-78
2024/01/16 01:05:31;;;;;;;9.18;1.50;;;;;;;;;;5023111;28;20042;-78
2024/01/16 01:07:57;;;;;;;6.20;1.25;;;;;;;;;;5004070;28;20522;-78
2024/01/16 01:10:23;;;;;;;6.35;1.30;;;;;;;;;;5021320;28;20546;-77
2024/01/16 01:12:51;;;;;;;7.97;1.60;;;;;;;;;;5018924;28;20148;-78
2024/01/16 01:15:17;;;;;;;10.32;1.90;;;;;;;;;;5021499;28;20065;-78
2024/01/16 01:17:43;;;;;;;11.88;1.67;;;;;;;;;;5021944;28;20321;-77
2024/01/16 01:20:12;;;;;;;11.07;1.55;;;;;;;;;;5019185;28;20046;-77
2024/01/16 01:22:38;;;;;;;11.65;1.80;;;;;;;;;;5022209;28;20429;-77
2024/01/16 01:25:04;;;;;;;10.75;1.35;;;;;;;;;;5022933;28;20041;-78
2024/01/16 01:27:30;;;;;;;5.95;1.27;;;;;;;;;;5020513;28;20049;-77
2024/01/16 01:29:56;;;;;;;11.55;1.65;;;;;;;;;;5022324;28;20095;-78
2024/01/16 01:32:22;;;;;;;11.68;1.30;;;;;;;;;;5021066;28;20449;-77
2024/01/16 01:34:48;;;;;;;11.15;1.73;;;;;;;;;;5019390;28;20136;-77
2024/01/16 01:37:14;;;;;;;10.30;1.60;;;;;;;;;;5018999;28;20600;-77
2024/01/16 01:39:41;;;;;;;9.60;1.48;;;;;;;;;;5020242;28;20136;-77
2024/01/16 01:42:07;;;;;;;5.30;1.08;;;;;;;;;;5003723;28;20061;-78
2024/01/16 01:44:33;;;;;;;7.95;1.50;;;;;;;;;;5018419;28;20061;-76
2024/01/16 01:46:59;;;;;;;6.07;1.75;;;;;;;;;;5020329;28;20037;-76
2024/01/16 01:49:26;;;;;;;10.10;1.48;;;;;;;;;;5021639;28;20465;-76
2024/01/16 01:51:52;;;;;;;12.98;1.63;;;;;;;;;;5018370;28;20046;-76
2024/01/16 01:54:19;;;;;;;10.70;1.73;;;;;;;;;;5020035;28;20585;-76
2024/01/16 01:56:46;;;;;;;8.40;1.42;;;;;;;;;;5019885;28;20045;-77
2024/01/16 01:59:14;;;;;;;8.27;1.63;;;;;;;;;;5020559;28;20456;-76
2024/01/16 02:01:41;;;;;;;5.97;1.35;;;;;;;;;;5018307;28;20049;-76
2024/01/16 02:04:07;;;;;;;7.25;1.20;;;;;;;;;;5019981;28;20069;-76
2024/01/16 02:06:33;;;;;;;7.38;1.20;;;;;;;;;;5019840;28;20045;-78
2024/01/16 02:08:59;;;;;;;8.60;1.40;;;;;;;;;;5018485;28;20728;-77
2024/01/16 02:11:26;;;;;;;11.40;1.83;;;;;;;;;;5020300;28;20038;-77
2024/01/16 02:13:52;;;;;;;9.65;1.52;;;;;;;;;;5020350;28;20045;-77
2024/01/16 02:16:19;;;;;;;8.90;1.33;;;;;;;;;;5020466;28;20065;-78
2024/01/16 02:18:46;;;;;;;8.32;1.33;;;;;;;;;;5018646;28;20037;-77
2024/01/16 02:21:13;;;;;;;10.82;1.50;;;;;;;;;;5017702;28;20045;-77
2024/01/16 02:23:39;;;;;;;7.65;1.33;;;;;;;;;;5017415;28;20120;-77
2024/01/16 02:26:05;;;;;;;10.15;1.65;;;;;;;;;;5016286;28;20057;-76
2024/01/16 02:28:31;;;;;;;13.65;2.58;;;;;;;;;;5020298;28;20552;-76
2024/01/16 02:30:57;;;;;;;10.90;1.42;;;;;;;;;;5020663;28;20037;-76
2024/01/16 02:33:23;;;;;;;4.82;1.20;;;;;;;;;;5017436;28;20049;-76
2024/01/16 02:35:49;;;;;;;8.95;1.35;;;;;;;;;;5018092;28;20049;-76
2024/01/16 02:38:15;;;;;;;6.88;1.38;;;;;;;;;;5016113;28;20063;-76
2024/01/16 02:40:41;;;;;;;9.45;1.45;;;;;;;;;;5018251;28;20052;-77
2024/01/16 02:43:07;;;;;;;9.48;1.35;;;;;;;;;;5020426;28;20409;-77
2024/01/16 02:45:34;;;;;;;7.72;1.30;;;;;;;;;;5018372;28;20045;-77
2024/01/16 02:48:00;;;;;;;6.93;1.10;;;;;;;;;;5020944;28;20195;-77
2024/01/16 02:50:26;;;;;;;8.38;1.60;;;;;;;;;;5018810;28;20065;-77
2024/01/16 02:52:52;;;;;;;10.50;1.30;;;;;;;;;;5033832;28;20041;-77
2024/01/16 02:55:18;;;;;;;10.30;1.42;;;;;;;;;;5017377;28;20050;-76
2024/01/16 02:57:44;;;;;;;9.25;1.27;;;;;;;;;;5018945;28;20410;-76
2024/01/16 03:00:11;;;;;;;19.95;2.50;;;;;;;;;;5018537;28;20049;-76
2024/01/16 03:02:37;;;;;;;10.20;1.33;;;;;;;;;;5016648;28;20096;-75
2024/01/16 03:05:05;;;;;;;9.02;1.15;;;;;;;;;;5019075;28;20579;-76
2024/01/16 03:07:31;;;;;;;6.72;1.50;;;;;;;;;;5018977;28;20164;-75
2024/01/16 03:09:57;;;;;;;9.02;1.40;;;;;;;;;;5016792;28;20041;-75
2024/01/16 03:12:24;;;;;;;9.35;1.35;;;;;;;;;;5019550;28;20064;-75
2024/01/16 03:14:50;;;;;;;9.05;1.52;;;;;;;;;;5018982;28;20139;-75
2024/01/16 03:17:16;;;;;;;7.28;1.38;;;;;;;;;;5016875;28;20071;-75
2024/01/16 03:19:43;;;;;;;13.73;1.52;;;;;;;;;;5019542;28;20045;-75
2024/01/16 03:22:09;;;;;;;9.45;1.10;;;;;;;;;;5019905;28;20143;-75
2024/01/16 03:24:35;;;;;;;11.10;1.65;;;;;;;;;;5021760;28;20042;-75
2024/01/16 03:27:02;;;;;;;12.38;1.55;;;;;;;;;;5018117;28;20049;-75
2024/01/16 03:29:28;;;;;;;5.32;1.23;;;;;;;;;;5018181;28;20081;-76
2024/01/16 03:31:54;;;;;;;10.73;1.50;;;;;;;;;;5017769;28;20563;-76
2024/01/16 03:34:20;;;;;;;6.10;1.20;;;;;;;;;;5021864;28;20195;-76
2024/01/16 03:36:46;;;;;;;10.98;1.63;;;;;;;;;;5018260;28;20517;-77
2024/01/16 03:39:12;;;;;;;17.05;2.20;;;;;;;;;;5018166;28;20053;-77
2024/01/16 03:41:38;;;;;;;10.23;1.60;;;;;;;;;;5017739;28;20038;-77
2024/01/16 03:44:04;;;;;;;11.25;1.80;;;;;;;;;;5019848;28;20041;-76
2024/01/16 03:46:30;;;;;;;12.60;1.77;;;;;;;;;;5020708;28;20046;-77
2024/01/16 03:48:56;;;;;;;12.63;1.95;;;;;;;;;;5020078;28;20045;-77
2024/01/16 03:51:22;;;;;;;13.90;1.88;;;;;;;;;;5017270;28;20072;-77
2024/01/16 03:53:48;;;;;;;15.65;2.00;;;;;;;;;;5018176;28;20533;-77
2024/01/16 03:56:16;;;;;;;13.02;1.85;;;;;;;;;;5016511;28;20045;-77
2024/01/16 03:58:42;;;;;;;8.60;1.48;;;;;;;;;;5017772;28;20498;-77
2024/01/16 04:01:08;;;;;;;12.68;1.50;;;;;;;;;;5019861;28;20128;-77
2024/01/16 04:03:38;;;;;;;14.15;3.10;;;;;;;;;;5020034;28;20034;-77
2024/01/16 04:06:04;;;;;;;11.48;1.58;;;;;;;;;;5021413;28;20390;-77
2024/01/16 04:08:30;;;;;;;12.18;1.70;;;;;;;;;;5021148;28;20053;-77
2024/01/16 04:10:56;;;;;;;11.13;1.73;;;;;;;;;;5020852;28;20041;-77
2024/01/16 04:13:22;;;;;;;14.70;2.10;;;;;;;;;;5025152;28;20440;-77
2024/01/16 04:15:48;;;;;;;12.40;2.70;;;;;;;;;;5023926;28;20049;-77
2024/01/16 04:18:14;;;;;;;12.80;1.58;;;;;;;;;;5021248;28;20049;-77
2024/01/16 04:20:40;;;;;;;11.50;1.85;;;;;;;;;;5023838;28;20060;-77
2024/01/16 04:23:06;;;;;;;7.68;1.20;;;;;;;;;;5021311;28;20060;-77
2024/01/16 04:25:32;;;;;;;9.35;1.58;;;;;;;;;;5021428;28;20141;-79
2024/01/16 04:27:58;;;;;;;8.98;1.55;;;;;;;;;;5006261;28;20572;-79
2024/01/16 04:30:24;;;;;;;10.20;1.20;;;;;;;;;;5027047;28;20051;-78
2024/01/16 04:32:50;;;;;;;5.93;1.27;;;;;;;;;;5020526;28;20060;-78
2024/01/16 04:35:16;;;;;;;6.32;1.45;;;;;;;;;;5021462;28;20417;-78
2024/01/16 04:37:42;;;;;;;8.23;1.45;;;;;;;;;;5022160;28;20047;-77
2024/01/16 04:40:09;;;;;;;9.13;1.65;;;;;;;;;;5019520;28;20056;-78
2024/01/16 04:42:35;;;;;;;10.40;1.45;;;;;;;;;;5021064;28;20200;-78
2024/01/16 04:45:01;;;;;;;8.45;1.35;;;;;;;;;;5016501;28;20042;-77
2024/01/16 04:47:27;;;;;;;10.00;1.60;;;;;;;;;;5004035;28;20037;-78
2024/01/16 04:49:53;;;;;;;13.85;1.65;;;;;;;;;;5002833;28;20045;-78
2024/01/16 04:52:19;;;;;;;9.63;1.50;;;;;;;;;;5021495;28;20113;-78
2024/01/16 04:54:45;;;;;;;9.55;1.50;;;;;;;;;;5004686;28;20274;-78
2024/01/16 04:57:11;;;;;;;11.82;1.42;;;;;;;;;;5022395;28;20136;-78
2024/01/16 04:59:37;;;;;;;13.20;1.90;;;;;;;;;;5022548;28;20045;-78
2024/01/16 05:02:04;;;;;;;7.80;1.20;;;;;;;;;;5014988;28;20041;-78
2024/01/16 05:04:30;;;;;;;9.85;1.52;;;;;;;;;;4997050;28;20476;-78
2024/01/16 05:06:56;;;;;;;12.80;2.08;;;;;;;;;;5022653;28;20032;-76
2024/01/16 05:09:22;;;;;;;8.63;1.52;;;;;;;;;;5006829;28;20037;-76
2024/01/16 05:11:49;;;;;;;10.50;1.90;;;;;;;;;;5017357;28;20048;-76
2024/01/16 05:14:15;;;;;;;10.80;1.60;;;;;;;;;;5019189;28;20136;-76
2024/01/16 05:16:41;;;;;;;8.90;1.60;;;;;;;;;;5022691;28;23081;-76
2024/01/16 05:19:07;;;;;;;15.25;2.00;;;;;;;;;;5021425;28;20065;-77
2024/01/16 05:21:33;;;;;;;7.93;1.48;;;;;;;;;;5020519;28;20072;-77
2024/01/16 05:23:59;;;;;;;12.00;1.70;;;;;;;;;;5003967;28;20045;-77
2024/01/16 05:26:25;;;;;;;14.68;1.90;;;;;;;;;;5023127;28;20091;-77
2024/01/16 05:28:51;;;;;;;8.50;1.42;;;;;;;;;;5020684;28;20044;-77
2024/01/16 05:31:19;;;;;;;13.05;2.08;;;;;;;;;;5020587;28;20106;-77
2024/01/16 05:33:45;;;;;;;6.78;1.65;;;;;;;;;;5020989;28;20125;-77
2024/01/16 05:36:11;;;;;;;11.63;1.65;;;;;;;;;;5022702;28;20124;-77
2024/01/16 05:38:37;;;;;;;13.88;1.73;;;;;;;;;;5021286;28;20128;-77
2024/01/16 05:41:03;;;;;;;7.75;1.50;;;;;;;;;;5019714;28;20053;-77
2024/01/16 05:43:29;;;;;;;10.77;1.52;;;;;;;;;;5024580;28;20077;-77
2024/01/16 05:45:55;;;;;;;6.97;1.63;;;;;;;;;;5023265;28;20510;-77
2024/01/16 05:48:21;;;;;;;8.45;1.52;;;;;;;;;;5021345;28;20136;-77
2024/01/16 05:50:47;;;;;;;8.20;1.50;;;;;;;;;;5021102;28;20052;-77
2024/01/16 05:53:14;;;;;;;8.55;1.90;;;;;;;;;;5023160;28;20099;-77
2024/01/16 05:55:40;;;;;;;8.68;1.65;;;;;;;;;;5020028;28;20442;-77
2024/01/16 05:58:06;;;;;;;7.10;1.50;;;;;;;;;;5022798;28;20037;-77
2024/01/16 06:00:34;;;;;;;6.55;1.08;;;;;;;;;;5020770;28;20049;-77
2024/01/16 06:03:00;;;;;;;10.05;1.70;;;;;;;;;;5020213;28;22945;-76
2024/01/16 06:05:26;;;;;;;9.07;1.77;;;;;;;;;;5021463;28;20191;-77
2024/01/16 06:07:52;;;;;;;7.20;2.55;;;;;;;;;;5021187;28;20091;-77
2024/01/16 06:10:18;;;;;;;10.45;2.30;;;;;;;;;;5017684;28;20053;-77
2024/01/16 06:12:44;;;;;;;8.18;2.00;;;;;;;;;;5018490;28;20045;-77
2024/01/16 06:15:11;;;;;;;9.20;1.90;;;;;;;;;;5022616;28;20816;-77
2024/01/16 06:17:37;;;;;;;11.02;2.55;;;;;;;;;;5003922;28;20122;-77
2024/01/16 06:20:04;;;;;;;13.10;2.50;;;;;;;;;;5024323;28;20041;-77
2024/01/16 06:22:30;;;;;;;6.60;2.03;;;;;;;;;;5019852;28;20078;-77
2024/01/16 06:24:56;;;;;;;12.98;2.67;;;;;;;;;;5019746;28;20056;-77
2024/01/16 06:27:22;;;;;;;8.93;2.60;;;;;;;;;;5020598;28;20038;-77
2024/01/16 06:29:50;;;;;;;9.68;3.00;;;;;;;;;;5021372;28;20053;-78
2024/01/16 06:32:17;;;;;;;9.50;2.63;;;;;;;;;;5016485;28;20394;-77
2024/01/16 06:34:43;;;;;;;9.93;2.58;;;;;;;;;;5020242;28;20133;-77
2024/01/16 06:37:10;;;;;;;13.50;2.97;;;;;;;;;;5022359;28;20055;-77
2024/01/16 06:39:36;;;;;;;9.80;2.72;;;;;;;;;;5021213;28;20045;-79
2024/01/16 06:42:04;;;;;;;10.63;3.03;;;;;;;;;;5023203;28;20797;-79
2024/01/16 06:44:30;;;;;;;6.72;2.78;;;;;;;;;;5024074;28;20049;-79
2024/01/16 06:46:56;;;;;;;9.95;3.25;;;;;;;;;;5020227;28;20045;-79
2024/01/16 06:49:22;;;;;;;10.82;3.08;;;;;;;;;;5024910;28;20045;-79
2024/01/16 06:51:48;;;;;;;10.68;3.38;;;;;;;;;;5024260;28;20041;-79
2024/01/16 06:54:14;;;;;;;10.68;3.10;;;;;;;;;;5008092;28;20048;-79
2024/01/16 06:56:40;;;;;;;9.60;3.30;;;;;;;;;;5009213;28;20041;-79
2024/01/16 06:59:06;;;;;;;10.30;3.33;;;;;;;;;;5022086;28;20101;-78
2024/01/16 07:01:32;;;;;;;9.65;3.40;;;;;;;;;;5007526;28;20052;-79
2024/01/16 07:03:58;;;;;;;12.50;3.72;;;;;;;;;;5022637;28;20120;-78
2024/01/16 07:06:24;;;;;;;11.75;3.38;;;;;;;;;;5024111;28;20045;-79
2024/01/16 07:08:50;;;;;;;12.63;3.58;;;;;;;;;;5018799;28;20037;-80
2024/01/16 07:11:17;;;;;;;13.02;3.63;;;;;;;;;;5019604;28;20068;-79
2024/01/16 07:13:44;;;;;;;11.73;3.88;;;;;;;;;;5034194;28;20057;-79
2024/01/16 07:16:10;;;;;;;10.15;4.35;;;;;;;;;;5020901;28;20908;-78
2024/01/16 07:18:37;;;;;;;9.05;3.90;;;;;;;;;;5023872;28;20050;-79
2024/01/16 07:21:03;;;;;;;14.70;4.40;;;;;;;;;;5018680;28;20562;-78
2024/01/16 07:23:30;;;;;;;10.25;3.90;;;;;;;;;;5020355;28;20044;-78
2024/01/16 07:25:56;;;;;;;9.93;3.90;;;;;;;;;;5018633;28;20464;-78
2024/01/16 07:28:23;;;;;;;11.05;4.45;;;;;;;;;;5021060;28;20063;-77
2024/01/16 07:30:49;;;;;;;12.02;4.10;;;;;;;;;;5021091;28;20164;-77
2024/01/16 07:33:15;;;;;;;11.77;4.82;;;;;;;;;;5000448;28;20045;-77
2024/01/16 07:35:43;;;;;;;10.98;4.70;;;;;;;;;;5021622;28;20054;-79
2024/01/16 07:38:09;;;;;;;10.63;4.30;;;;;;;;;;5026079;28;20065;-81
2024/01/16 07:40:35;;;;;;;10.23;4.57;;;;;;;;;;5026431;28;20060;-81
2024/01/16 07:43:01;;;;;;;12.63;4.38;;;;;;;;;;5014511;28;20483;-80
2024/01/16 07:45:27;;;;;;;11.38;4.82;;;;;;;;;;5032435;28;20087;-81
2024/01/16 07:47:53;;;;;;;14.82;5.28;;;;;;;;;;5028473;28;21631;-80
2024/01/16 07:50:20;;;;;;;11.35;4.28;;;;;;;;;;5009558;28;20045;-81
2024/01/16 07:52:46;;;;;;;11.60;4.50;;;;;;;;;;5030127;28;20156;-81
2024/01/16 07:55:12;;;;;;;12.10;4.70;;;;;;;;;;5030617;28;20059;-81
2024/01/16 07:57:38;;;;;;;9.10;4.70;;;;;;;;;;5027940;28;20085;-80
2024/01/16 08:00:05;;;;;;;8.40;4.30;;;;;;;;;;5005897;28;20445;-81
2024/01/16 08:02:36;;;;;;;10.60;4.20;;;;;;;;;;5021998;28;20129;-80
2024/01/16 08:05:02;;;;;;;10.45;5.03;;;;;;;;;;5023744;28;20048;-81
2024/01/16 08:07:28;;;;;;;9.10;4.57;;;;;;;;;;5025469;28;20037;-81
2024/01/16 08:09:54;;;;;;;11.40;5.45;;;;;;;;;;5005812;28;20045;-81
2024/01/16 08:12:20;;;;;;;11.02;5.32;;;;;;;;;;5023829;28;20354;-81
2024/01/16 08:14:46;;;;;;;11.13;5.90;;;;;;;;;;5020249;28;20045;-81
2024/01/16 08:17:12;;;;;;;9.90;5.80;;;;;;;;;;5021348;28;20049;-81
2024/01/16 08:19:38;;;;;;;24.63;7.22;;;;;;;;;;5006367;28;20468;-81
2024/01/16 08:22:04;;;;;;;14.02;6.78;;;;;;;;;;5006704;28;20488;-82
2024/01/16 08:24:30;;;;;;;15.82;8.00;;;;;;;;;;5022532;28;20061;-81
2024/01/16 08:26:59;;;;;;;18.38;8.30;;;;;;;;;;5022860;28;20045;-82
2024/01/16 08:29:25;;;;;;;18.20;8.65;;;;;;;;;;5027729;28;20038;-82
2024/01/16 08:31:52;;;;;;;14.77;9.00;;;;;;;;;;5027656;28;20042;-82
2024/01/16 08:34:18;;;;;;;15.48;7.20;;;;;;;;;;5026642;28;20034;-81
2024/01/16 08:36:44;;;;;;;14.88;8.20;;;;;;;;;;5010969;28;20061;-82
2024/01/16 08:39:11;;;;;;;11.73;8.18;;;;;;;;;;5008179;28;20055;-82
2024/01/16 08:41:37;;;;;;;11.57;7.68;;;;;;;;;;5025858;28;20616;-81
2024/01/16 08:44:03;;;;;;;18.90;8.60;;;;;;;;;;5025795;28;20501;-81
2024/01/16 08:46:29;;;;;;;11.48;7.45;;;;;;;;;;5025178;28;20205;-82
2024/01/16 08:48:56;;;;;;;19.38;8.70;;;;;;;;;;5024532;28;20045;-82
2024/01/16 08:51:23;;;;;;;15.68;8.27;;;;;;;;;;5027835;28;20087;-82
2024/01/16 08:53:49;;;;;;;13.00;7.55;;;;;;;;;;5024765;28;20080;-81
2024/01/16 08:56:16;;;;;;;18.20;8.23;;;;;;;;;;5025919;28;20119;-81
2024/01/16 08:58:42;;;;;;;12.82;7.78;;;;;;;;;;5024390;28;20050;-81
2024/01/16 09:01:10;;;;;;;12.90;7.95;;;;;;;;;;5024079;28;20056;-81
2024/01/16 09:03:36;;;;;;;15.20;8.77;;;;;;;;;;5021555;28;20609;-81
2024/01/16 09:06:02;;;;;;;12.88;8.13;;;;;;;;;;5009310;28;20541;-82
2024/01/16 09:08:28;;;;;;;14.77;8.27;;;;;;;;;;5025157;28;20056;-82
2024/01/16 09:10:57;;;;;;;15.02;8.32;;;;;;;;;;5026419;28;20060;-82
2024/01/16 09:13:23;;;;;;;18.35;10.48;;;;;;;;;;5006191;28;20045;-82
2024/01/16 09:15:52;;;;;;;18.55;10.75;;;;;;;;;;5008960;28;20108;-83
2024/01/16 10:28:52;;;;;;;9.50;4.75;;;;;;;;;;5019628;28;20085;-81
2024/01/16 10:32:17;;;;;;;;;;;;;;;;;;;;;
2024/01/16 10:43:09;;;;;;;7.38;2.67;;;;;;;;;;4911698;28;20053;-82
2024/01/16 10:45:59;;;;;;;;;;;;;;;;;;;;;
2024/01/16 10:59:26;;;;;;;5.47;2.10;;;;;;;;;;4903822;29;20048;-78
2024/01/16 11:02:27;;;;;;;5.28;1.63;;;;;;;;;;4942418;28;20122;-78
2024/01/16 11:05:03;;;;;;;5.30;1.75;;;;;;;;;;4890059;29;20043;-76
2024/01/16 11:07:30;;;;;;;6.00;1.70;;;;;;;;;;4936262;28;20063;-75
2024/01/16 11:17:30;;;;;;;13.43;1.75;;;;;;;;;;4926888;29;19950;-76
2024/01/16 11:22:38;;;;;;;4.60;1.38;;;;;;;;;;5034621;23;20044;-75
2024/01/16 11:25:19;;;;;;;8.85;1.48;;;;;;;;;;5023483;28;20112;-75
2024/01/16 11:38:37;;;;;;;7.60;2.60;;;;;;;;;;4877205;29;20076;-75
2024/01/16 11:41:03;;;;;;;10.20;2.97;;;;;;;;;;4865066;29;20045;-75
2024/01/16 11:43:33;;;;;;;9.95;3.10;;;;;;;;;;4932036;28;20057;-74
2024/01/16 11:46:03;;;;;;;14.30;3.33;;;;;;;;;;4997242;28;20056;-74
2024/01/16 11:48:29;;;;;;;7.25;2.38;;;;;;;;;;4997253;28;20092;-75
2024/01/16 11:50:55;;;;;;;9.15;2.50;;;;;;;;;;4996596;28;20052;-74
2024/01/16 11:53:32;;;;;;;7.60;2.90;;;;;;;;;;4995493;28;20049;-74
2024/01/16 11:56:08;;;;;;;16.23;4.13;;;;;;;;;;4994436;28;20188;-74
2024/01/16 11:58:57;;;;;;;10.63;4.22;;;;;;;;;;4996361;28;20084;-74
2024/01/16 12:01:24;;;;;;;9.70;5.00;;;;;;;;;;4973343;28;20073;-74
2024/01/16 12:04:04;;;;;;;16.85;6.00;;;;;;;;;;5024353;28;20109;-74
2024/01/16 12:06:30;;;;;;;13.60;7.35;;;;;;;;;;4997994;28;20052;-74
2024/01/16 12:09:11;;;;;;;17.15;7.90;;;;;;;;;;4998881;28;20070;-74
2024/01/16 12:11:37;;;;;;;16.05;8.73;;;;;;;;;;4999478;28;20046;-72
2024/01/16 12:14:06;;;;;;;15.63;8.82;;;;;;;;;;4988111;28;21110;-72
2024/01/16 12:16:32;;;;;;;13.30;8.82;;;;;;;;;;4996086;28;20826;-72
2024/01/16 12:19:25;;;;;;;17.27;8.60;;;;;;;;;;4993687;28;20084;-72
2024/01/16 12:21:51;;;;;;;22.15;9.38;;;;;;;;;;5008406;28;20049;-72
2024/01/16 12:24:18;;;;;;;17.70;9.50;;;;;;;;;;4994514;28;22851;-72
2024/01/16 12:26:44;;;;;;;18.77;9.45;;;;;;;;;;4993989;28;20128;-72
2024/01/16 12:29:10;;;;;;;15.68;8.20;;;;;;;;;;4992583;28;20518;-72
2024/01/16 12:31:36;;;;;;;17.52;8.55;;;;;;;;;;4994725;28;20042;-72
2024/01/16 12:34:08;;;;;;;15.20;9.15;;;;;;;;;;4996329;28;20042;-72
2024/01/16 12:36:34;;;;;;;;;;;;;;;;;;4994270;28;20100;-72
2024/01/16 12:39:01;;;;;;;13.80;7.82;;;;;;;;;;4994701;28;19921;-72
2024/01/16 12:41:31;;;;;;;13.77;7.28;;;;;;;;;;4992635;28;20056;-72
2024/01/16 12:43:57;;;;;;;16.38;7.32;;;;;;;;;;4994801;28;20042;-72
2024/01/16 12:46:23;;;;;;;16.67;7.38;;;;;;;;;;4993150;28;20620;-71
2024/01/16 12:48:49;;;;;;;13.80;6.38;;;;;;;;;;4994387;28;20108;-72
2024/01/16 12:51:22;;;;;;;15.82;6.72;;;;;;;;;;4994350;28;20587;-72
2024/01/16 12:53:49;;;;;;;15.52;7.03;;;;;;;;;;4998225;28;20057;-73
2024/01/16 12:56:18;;;;;;;15.00;6.53;;;;;;;;;;4996555;28;20046;-73
2024/01/16 12:58:44;;;;;;;12.32;6.15;;;;;;;;;;4996826;28;20046;-72
2024/01/16 13:01:23;;;;;;;17.05;6.30;;;;;;;;;;4997837;28;20115;-73
2024/01/16 13:03:51;;;;;;;14.02;6.97;;;;;;;;;;4993699;28;20041;-73
2024/01/16 13:06:21;;;;;;;13.27;6.20;;;;;;;;;;4995765;28;20558;-72
2024/01/16 13:08:51;;;;;;;13.98;6.60;;;;;;;;;;4996563;28;20052;-73
2024/01/16 13:11:20;;;;;;;17.77;5.75;;;;;;;;;;4997327;28;20058;-72
2024/01/16 13:13:51;;;;;;;13.15;5.53;;;;;;;;;;4993479;28;20054;-73
2024/01/16 13:16:17;;;;;;;14.35;5.82;;;;;;;;;;4995428;28;20137;-72
2024/01/16 13:18:43;;;;;;;11.95;5.30;;;;;;;;;;4994506;28;20607;-73
2024/01/16 13:21:09;;;;;;;13.10;5.10;;;;;;;;;;4997092;28;20049;-72
2024/01/16 13:23:36;;;;;;;11.55;5.05;;;;;;;;;;4994794;28;21087;-72
2024/01/16 13:26:04;;;;;;;8.77;4.80;;;;;;;;;;4995404;28;20042;-73
2024/01/16 13:28:30;;;;;;;12.40;4.72;;;;;;;;;;4994124;28;20176;-72
2024/01/16 13:30:56;;;;;;;9.20;4.25;;;;;;;;;;4995496;28;20136;-72
2024/01/16 13:33:29;;;;;;;10.38;4.68;;;;;;;;;;4993825;28;20107;-72
2024/01/16 13:35:55;;;;;;;8.57;3.78;;;;;;;;;;4993155;28;20088;-72
2024/01/16 13:38:21;;;;;;;10.52;3.88;;;;;;;;;;4993362;28;20068;-71
2024/01/16 13:40:50;;;;;;;9.98;3.40;;;;;;;;;;4993524;28;20097;-71
2024/01/16 13:43:16;;;;;;;7.63;2.80;;;;;;;;;;4993750;28;20053;-72
2024/01/16 13:45:42;;;;;;;12.85;3.20;;;;;;;;;;4990191;28;20045;-71
2024/01/16 13:48:08;;;;;;;8.95;2.80;;;;;;;;;;4995398;28;20057;-71
2024/01/16 13:50:34;;;;;;;10.43;3.15;;;;;;;;;;4994962;28;20045;-71
2024/01/16 13:53:02;;;;;;;9.02;2.40;;;;;;;;;;4991894;28;20073;-71
2024/01/16 13:55:28;;;;;;;5.35;2.20;;;;;;;;;;4991440;28;20180;-71
2024/01/16 13:57:54;;;;;;;6.00;2.60;;;;;;;;;;4974396;28;20595;-72
2024/01/16 14:00:20;;;;;;;7.72;2.50;;;;;;;;;;4993847;28;20172;-71
2024/01/16 14:02:47;;;;;;;6.88;2.42;;;;;;;;;;4994477;28;20486;-71
2024/01/16 14:05:17;;;;;;;7.65;2.53;;;;;;;;;;4995255;28;20061;-71
2024/01/16 14:07:47;;;;;;;9.55;2.17;;;;;;;;;;4992496;28;20133;-71
2024/01/16 14:10:17;;;;;;;8.50;2.80;;;;;;;;;;4993105;28;20157;-71
2024/01/16 14:12:44;;;;;;;6.97;2.47;;;;;;;;;;4993724;28;20049;-71
2024/01/16 14:15:22;;;;;;;8.98;2.90;;;;;;;;;;4996478;28;20085;-71
2024/01/16 14:17:55;;;;;;;7.53;2.60;;;;;;;;;;4994771;28;20150;-71
2024/01/16 14:20:26;;;;;;;8.57;2.30;;;;;;;;;;4990342;28;20046;-71
2024/01/16 14:22:52;;;;;;;9.85;2.58;;;;;;;;;;4992098;28;20042;-71
2024/01/16 14:25:18;;;;;;;9.38;2.60;;;;;;;;;;4991010;28;20042;-72
2024/01/16 14:27:46;;;;;;;6.78;2.45;;;;;;;;;;4994235;28;20136;-71
2024/01/16 14:30:13;;;;;;;7.35;2.45;;;;;;;;;;4992212;28;20399;-71
2024/01/16 14:32:40;;;;;;;9.80;2.40;;;;;;;;;;4993692;28;20046;-72
2024/01/16 14:35:09;;;;;;;6.00;2.33;;;;;;;;;;4992738;28;20048;-72
2024/01/16 14:37:35;;;;;;;15.75;2.10;;;;;;;;;;4994077;28;20044;-71
2024/01/16 14:40:03;;;;;;;7.35;2.30;;;;;;;;;;4993526;28;20866;-72
2024/01/16 14:42:29;;;;;;;6.88;2.50;;;;;;;;;;4995104;28;20364;-71
2024/01/16 14:44:56;;;;;;;10.70;2.63;;;;;;;;;;5007517;28;20054;-72
2024/01/16 14:47:23;;;;;;;10.00;2.30;;;;;;;;;;4997598;28;20046;-71
2024/01/16 14:49:50;;;;;;;6.93;2.10;;;;;;;;;;4992587;28;20081;-72
2024/01/16 14:52:17;;;;;;;7.22;2.30;;;;;;;;;;4993427;28;20100;-72
2024/01/16 14:54:44;;;;;;;10.65;2.17;;;;;;;;;;4992269;28;20050;-72
2024/01/16 14:57:11;;;;;;;9.25;2.47;;;;;;;;;;4997500;28;20099;-72
2024/01/16 14:59:37;;;;;;;7.78;2.30;;;;;;;;;;4993853;28;20108;-72
2024/01/16 15:02:12;;;;;;;8.65;1.95;;;;;;;;;;4994404;28;20489;-72
2024/01/16 15:04:39;;;;;;;8.07;2.10;;;;;;;;;;4995196;28;20096;-72
2024/01/16 15:07:05;;;;;;;12.25;2.25;;;;;;;;;;4992452;28;20053;-72
2024/01/16 15:09:34;;;;;;;7.88;2.20;;;;;;;;;;4991954;28;21856;-72
2024/01/16 15:12:00;;;;;;;5.35;2.00;;;;;;;;;;4994051;28;20120;-71
2024/01/16 15:14:26;;;;;;;7.75;2.15;;;;;;;;;;4990048;28;20050;-74
2024/01/16 15:16:52;;;;;;;8.02;2.63;;;;;;;;;;4992019;28;20267;-74
2024/01/16 15:19:18;;;;;;;7.53;2.03;;;;;;;;;;4985438;28;20533;-73
2024/01/16 15:21:44;;;;;;;7.07;2.03;;;;;;;;;;4980197;28;20177;-75
2024/01/16 15:24:16;;;;;;;8.07;2.25;;;;;;;;;;4983591;28;20038;-75
2024/01/16 15:26:42;;;;;;;8.60;2.22;;;;;;;;;;4982927;28;20042;-76
2024/01/16 15:29:09;;;;;;;9.00;2.45;;;;;;;;;;4986338;28;20153;-76
2024/01/16 15:31:35;;;;;;;8.15;1.95;;;;;;;;;;4985187;28;20942;-75
2024/01/16 15:34:01;;;;;;;7.20;2.38;;;;;;;;;;4993529;28;20045;-75
2024/01/16 15:36:28;;;;;;;8.05;2.75;;;;;;;;;;4993109;28;20054;-75
2024/01/16 15:38:53;;;;;;;6.28;2.00;;;;;;;;;;5006174;28;20060;-75
2024/01/16 15:41:19;;;;;;;6.72;2.13;;;;;;;;;;4992363;28;20050;-75
2024/01/16 15:43:45;;;;;;;7.13;1.92;;;;;;;;;;4974492;28;20678;-75
2024/01/16 15:46:12;;;;;;;10.23;2.38;;;;;;;;;;4990389;28;20042;-75
2024/01/16 15:48:38;;;;;;;7.05;2.25;;;;;;;;;;4985643;28;20085;-76
2024/01/16 15:51:07;;;;;;;7.80;2.63;;;;;;;;;;4988332;28;20062;-75
2024/01/16 15:53:34;;;;;;;7.13;2.42;;;;;;;;;;4988363;28;20075;-75
2024/01/16 15:56:00;;;;;;;7.35;2.50;;;;;;;;;;4984764;28;20052;-75
2024/01/16 15:58:31;;;;;;;5.80;2.00;;;;;;;;;;4986709;28;20054;-75
2024/01/16 16:00:57;;;;;;;6.30;2.22;;;;;;;;;;4988776;28;20137;-76
2024/01/16 16:03:23;;;;;;;9.98;2.30;;;;;;;;;;4988141;28;20053;-76
2024/01/16 16:05:49;;;;;;;4.15;1.90;;;;;;;;;;4991784;28;20048;-76
2024/01/16 16:08:15;;;;;;;11.88;2.05;;;;;;;;;;4993365;28;20136;-76
2024/01/16 16:10:41;;;;;;;8.10;2.30;;;;;;;;;;4991565;28;20060;-76
2024/01/16 16:13:09;;;;;;;8.35;2.65;;;;;;;;;;4992852;28;20733;-76
2024/01/16 16:15:35;;;;;;;5.35;2.38;;;;;;;;;;4992191;28;20038;-77
2024/01/16 16:18:02;;;;;;;9.07;2.35;;;;;;;;;;5010468;28;20046;-76
2024/01/16 16:20:28;;;;;;;6.07;2.22;;;;;;;;;;4992941;28;20172;-76
2024/01/16 16:22:54;;;;;;;6.97;2.15;;;;;;;;;;4992965;28;20050;-77
2024/01/16 16:25:20;;;;;;;7.13;2.22;;;;;;;;;;4999897;28;20078;-77
2024/01/16 16:27:47;;;;;;;7.40;2.35;;;;;;;;;;5000481;28;20034;-77
2024/01/16 16:30:14;;;;;;;6.00;2.35;;;;;;;;;;5002361;28;20077;-76